Terminal Aerodrome Forecast
Issued by NWS

Current Version | Previous Version | Text Only | Print | Product List | Glossary On
Versions: 1 2 3 4 5 6 7 8 9 10 11 12 13 14 15 16 17 18 19 20 21
000
FTUS41 KBGM 200800 AAA
TAFITH
TAF AMD
KITH 200839Z 2009/2106 16012KT P6SM OVC015
     FM201400 18012G22KT P6SM OVC025
     FM201700 18012G22KT P6SM SCT025 BKN035
     FM202300 17010KT P6SM SCT040=

USA.gov is the U.S. government's official web portal to all federal, state and local government web resources and services.